sensor_id;sensor_type;location;lat;lon;timestamp;temperature;humidity
8114;DHT22;4099;52.684;9.918;2024-03-08T00:02:11;0.20;99.90
8114;DHT22;4099;52.684;9.918;2024-03-08T00:07:44;0.20;99.90
8114;DHT22;4099;52.684;9.918;2024-03-08T00:12:39;0.00;99.90
8114;DHT22;4099;52.684;9.918;2024-03-08T00:23:43;0.00;99.90
8114;DHT22;4099;52.684;9.918;2024-03-08T00:28:48;0.10;99.90
8114;DHT22;4099;52.684;9.918;2024-03-08T00:33:53;0.10;99.90
8114;DHT22;4099;52.684;9.918;2024-03-08T00:39:01;0.00;99.90
8114;DHT22;4099;52.684;9.918;2024-03-08T00:44:24;0.00;99.90
8114;DHT22;4099;52.684;9.918;2024-03-08T00:49:40;-0.10;99.90
8114;DHT22;4099;52.684;9.918;2024-03-08T00:54:50;-0.10;99.90
8114;DHT22;4099;52.684;9.918;2024-03-08T01:00:03;-0.10;99.90
8114;DHT22;4099;52.684;9.918;2024-03-08T01:05:22;-0.10;99.90
8114;DHT22;4099;52.684;9.918;2024-03-08T01:10:37;-0.20;99.90
8114;DHT22;4099;52.684;9.918;2024-03-08T01:15:56;-0.40;99.90
8114;DHT22;4099;52.684;9.918;2024-03-08T01:21:11;-0.40;99.90
8114;DHT22;4099;52.684;9.918;2024-03-08T01:26:50;-0.20;99.90
8114;DHT22;4099;52.684;9.918;2024-03-08T01:31:54;-0.30;99.90
8114;DHT22;4099;52.684;9.918;2024-03-08T01:37:07;-0.30;99.90
8114;DHT22;4099;52.684;9.918;2024-03-08T01:42:22;-0.40;99.90
8114;DHT22;4099;52.684;9.918;2024-03-08T01:47:38;-0.50;99.90
8114;DHT22;4099;52.684;9.918;2024-03-08T01:52:46;-0.60;99.90
8114;DHT22;4099;52.684;9.918;2024-03-08T01:57:53;-0.60;99.90
8114;DHT22;4099;52.684;9.918;2024-03-08T02:02:59;-0.50;99.90
8114;DHT22;4099;52.684;9.918;2024-03-08T02:08:03;-0.50;99.90
8114;DHT22;4099;52.684;9.918;2024-03-08T02:13:14;-0.50;99.90
8114;DHT22;4099;52.684;9.918;2024-03-08T02:23:57;-0.60;99.90
8114;DHT22;4099;52.684;9.918;2024-03-08T02:29:09;-0.50;99.90
8114;DHT22;4099;52.684;9.918;2024-03-08T02:34:16;-0.70;99.90
8114;DHT22;4099;52.684;9.918;2024-03-08T02:39:38;-0.70;99.90
8114;DHT22;4099;52.684;9.918;2024-03-08T02:44:45;-0.80;99.90
8114;DHT22;4099;52.684;9.918;2024-03-08T02:49:52;-0.80;99.90
8114;DHT22;4099;52.684;9.918;2024-03-08T02:55:16;-0.80;99.90
8114;DHT22;4099;52.684;9.918;2024-03-08T03:00:41;-0.70;99.90
8114;DHT22;4099;52.684;9.918;2024-03-08T03:05:55;-0.80;99.90
8114;DHT22;4099;52.684;9.918;2024-03-08T03:11:08;-0.90;99.90
8114;DHT22;4099;52.684;9.918;2024-03-08T03:16:20;-1.00;99.90
8114;DHT22;4099;52.684;9.918;2024-03-08T03:21:27;-1.10;99.90
8114;DHT22;4099;52.684;9.918;2024-03-08T03:26:43;-1.00;99.90
8114;DHT22;4099;52.684;9.918;2024-03-08T03:32:23;-1.10;99.90
8114;DHT22;4099;52.684;9.918;2024-03-08T03:37:27;-1.10;99.90
8114;DHT22;4099;52.684;9.918;2024-03-08T03:42:37;-1.20;99.90
8114;DHT22;4099;52.684;9.918;2024-03-08T03:53:06;-1.30;99.90
8114;DHT22;4099;52.684;9.918;2024-03-08T03:58:59;-1.20;99.90
8114;DHT22;4099;52.684;9.918;2024-03-08T04:04:03;-1.20;99.90
8114;DHT22;4099;52.684;9.918;2024-03-08T04:09:12;-1.30;99.90
8114;DHT22;4099;52.684;9.918;2024-03-08T04:14:28;-1.30;99.90
8114;DHT22;4099;52.684;9.918;2024-03-08T04:19:42;-1.10;99.90
8114;DHT22;4099;52.684;9.918;2024-03-08T04:24:54;-1.20;99.90
8114;DHT22;4099;52.684;9.918;2024-03-08T04:30:12;-1.20;99.90
8114;DHT22;4099;52.684;9.918;2024-03-08T04:35:20;-1.10;99.90
8114;DHT22;4099;52.684;9.918;2024-03-08T04:40:33;-1.10;99.90
8114;DHT22;4099;52.684;9.918;2024-03-08T04:45:56;-1.10;99.90
8114;DHT22;4099;52.684;9.918;2024-03-08T04:51:08;-1.10;99.90
8114;DHT22;4099;52.684;9.918;2024-03-08T04:56:17;-1.30;99.90
8114;DHT22;4099;52.684;9.918;2024-03-08T05:01:52;-1.20;99.90
8114;DHT22;4099;52.684;9.918;2024-03-08T05:07:05;-1.00;99.90
8114;DHT22;4099;52.684;9.918;2024-03-08T05:12:08;-1.00;99.90
8114;DHT22;4099;52.684;9.918;2024-03-08T05:17:28;-1.00;99.90
8114;DHT22;4099;52.684;9.918;2024-03-08T05:22:38;-1.00;99.90
8114;DHT22;4099;52.684;9.918;2024-03-08T05:27:43;-1.00;99.90
8114;DHT22;4099;52.684;9.918;2024-03-08T05:33:02;-1.00;99.90
8114;DHT22;4099;52.684;9.918;2024-03-08T05:38:10;-1.00;99.90
8114;DHT22;4099;52.684;9.918;2024-03-08T05:43:22;-1.00;99.90
8114;DHT22;4099;52.684;9.918;2024-03-08T05:48:37;-1.10;99.90
8114;DHT22;4099;52.684;9.918;2024-03-08T05:59:56;-1.20;99.90
8114;DHT22;4099;52.684;9.918;2024-03-08T06:05:08;-1.20;99.90
8114;DHT22;4099;52.684;9.918;2024-03-08T06:11:47;-1.20;99.90
8114;DHT22;4099;52.684;9.918;2024-03-08T06:22:56;-1.10;99.90
8114;DHT22;4099;52.684;9.918;2024-03-08T06:29:12;-1.00;99.90
8114;DHT22;4099;52.684;9.918;2024-03-08T06:34:01;-0.90;99.90
8114;DHT22;4099;52.684;9.918;2024-03-08T06:39:28;-1.10;99.90
8114;DHT22;4099;52.684;9.918;2024-03-08T06:44:49;-1.10;99.90
8114;DHT22;4099;52.684;9.918;2024-03-08T06:51:05;-0.70;99.90
8114;DHT22;4099;52.684;9.918;2024-03-08T06:56:35;-0.60;99.90
8114;DHT22;4099;52.684;9.918;2024-03-08T07:01:52;-0.50;99.90
8114;DHT22;4099;52.684;9.918;2024-03-08T07:07:13;-0.40;99.90
8114;DHT22;4099;52.684;9.918;2024-03-08T07:12:32;-0.20;99.90
8114;DHT22;4099;52.684;9.918;2024-03-08T07:18:04;0.00;99.90
8114;DHT22;4099;52.684;9.918;2024-03-08T07:23:28;0.10;99.90
8114;DHT22;4099;52.684;9.918;2024-03-08T07:34:45;0.40;99.90
8114;DHT22;4099;52.684;9.918;2024-03-08T07:39:53;0.60;99.90
8114;DHT22;4099;52.684;9.918;2024-03-08T07:45:16;0.80;99.90
8114;DHT22;4099;52.684;9.918;2024-03-08T07:50:29;1.00;99.90
8114;DHT22;4099;52.684;9.918;2024-03-08T07:55:42;1.20;99.90
8114;DHT22;4099;52.684;9.918;2024-03-08T08:00:53;1.40;99.90
8114;DHT22;4099;52.684;9.918;2024-03-08T08:06:17;1.60;99.90
8114;DHT22;4099;52.684;9.918;2024-03-08T08:11:32;1.90;99.90
8114;DHT22;4099;52.684;9.918;2024-03-08T08:17:04;2.10;99.90
8114;DHT22;4099;52.684;9.918;2024-03-08T08:22:22;2.50;99.90
8114;DHT22;4099;52.684;9.918;2024-03-08T08:27:29;2.80;99.90
8114;DHT22;4099;52.684;9.918;2024-03-08T08:32:41;3.20;99.90
8114;DHT22;4099;52.684;9.918;2024-03-08T08:37:51;3.50;99.90
8114;DHT22;4099;52.684;9.918;2024-03-08T08:43:38;3.80;99.90
8114;DHT22;4099;52.684;9.918;2024-03-08T08:49:00;4.20;99.90
8114;DHT22;4099;52.684;9.918;2024-03-08T08:54:26;4.50;99.90
8114;DHT22;4099;52.684;9.918;2024-03-08T08:59:58;4.70;99.90
8114;DHT22;4099;52.684;9.918;2024-03-08T09:05:16;5.00;99.90
8114;DHT22;4099;52.684;9.918;2024-03-08T09:10:23;5.10;99.60
8114;DHT22;4099;52.684;9.918;2024-03-08T09:15:53;5.20;99.50
8114;DHT22;4099;52.684;9.918;2024-03-08T09:21:24;5.40;99.70
8114;DHT22;4099;52.684;9.918;2024-03-08T09:26:41;5.60;98.60
8114;DHT22;4099;52.684;9.918;2024-03-08T09:31:44;5.90;98.90
8114;DHT22;4099;52.684;9.918;2024-03-08T09:36:53;6.10;98.50
8114;DHT22;4099;52.684;9.918;2024-03-08T09:42:20;6.30;97.80
8114;DHT22;4099;52.684;9.918;2024-03-08T09:47:28;6.40;98.30
8114;DHT22;4099;52.684;9.918;2024-03-08T09:52:37;6.80;97.60
8114;DHT22;4099;52.684;9.918;2024-03-08T10:03:37;7.10;96.60
8114;DHT22;4099;52.684;9.918;2024-03-08T10:08:48;7.30;96.20
8114;DHT22;4099;52.684;9.918;2024-03-08T10:13:53;7.20;96.20
8114;DHT22;4099;52.684;9.918;2024-03-08T10:18:57;7.50;96.10
8114;DHT22;4099;52.684;9.918;2024-03-08T10:24:13;7.70;95.50
8114;DHT22;4099;52.684;9.918;2024-03-08T10:29:20;7.70;94.90
8114;DHT22;4099;52.684;9.918;2024-03-08T10:34:33;7.80;95.60
8114;DHT22;4099;52.684;9.918;2024-03-08T10:39:41;8.10;95.10
8114;DHT22;4099;52.684;9.918;2024-03-08T10:44:53;8.30;94.60
8114;DHT22;4099;52.684;9.918;2024-03-08T10:50:17;8.60;94.20
8114;DHT22;4099;52.684;9.918;2024-03-08T10:55:28;8.80;93.00
8114;DHT22;4099;52.684;9.918;2024-03-08T11:00:47;8.90;92.60
8114;DHT22;4099;52.684;9.918;2024-03-08T11:06:01;9.00;92.80
8114;DHT22;4099;52.684;9.918;2024-03-08T11:11:54;8.90;92.90
8114;DHT22;4099;52.684;9.918;2024-03-08T11:17:53;9.00;93.00
8114;DHT22;4099;52.684;9.918;2024-03-08T11:23:12;9.20;92.50
8114;DHT22;4099;52.684;9.918;2024-03-08T11:28:50;9.20;93.00
8114;DHT22;4099;52.684;9.918;2024-03-08T11:33:57;9.30;92.50
8114;DHT22;4099;52.684;9.918;2024-03-08T11:39:07;9.30;93.90
8114;DHT22;4099;52.684;9.918;2024-03-08T11:44:28;9.60;92.30
8114;DHT22;4099;52.684;9.918;2024-03-08T11:49:33;9.80;92.60
8114;DHT22;4099;52.684;9.918;2024-03-08T11:54:51;10.00;91.70
8114;DHT22;4099;52.684;9.918;2024-03-08T12:00:15;10.00;90.90
8114;DHT22;4099;52.684;9.918;2024-03-08T12:05:32;9.80;91.20
8114;DHT22;4099;52.684;9.918;2024-03-08T12:10:47;9.90;91.50
8114;DHT22;4099;52.684;9.918;2024-03-08T12:15:58;10.20;91.10
8114;DHT22;4099;52.684;9.918;2024-03-08T12:21:21;10.50;90.70
8114;DHT22;4099;52.684;9.918;2024-03-08T12:26:39;10.90;90.70
8114;DHT22;4099;52.684;9.918;2024-03-08T12:31:52;11.50;89.70
8114;DHT22;4099;52.684;9.918;2024-03-08T12:37:18;11.50;90.30
8114;DHT22;4099;52.684;9.918;2024-03-08T12:42:28;12.00;87.50
8114;DHT22;4099;52.684;9.918;2024-03-08T12:53:13;12.70;86.50
8114;DHT22;4099;52.684;9.918;2024-03-08T12:58:20;13.20;83.80
8114;DHT22;4099;52.684;9.918;2024-03-08T13:03:31;14.40;82.70
8114;DHT22;4099;52.684;9.918;2024-03-08T13:09:25;15.40;79.10
8114;DHT22;4099;52.684;9.918;2024-03-08T13:14:49;15.40;74.30
8114;DHT22;4099;52.684;9.918;2024-03-08T13:19:54;15.30;75.10
8114;DHT22;4099;52.684;9.918;2024-03-08T13:25:12;16.40;73.40
8114;DHT22;4099;52.684;9.918;2024-03-08T13:30:21;17.40;72.20
8114;DHT22;4099;52.684;9.918;2024-03-08T13:35:56;17.50;72.90
8114;DHT22;4099;52.684;9.918;2024-03-08T13:41:05;18.10;65.60
8114;DHT22;4099;52.684;9.918;2024-03-08T13:46:23;17.00;65.80
8114;DHT22;4099;52.684;9.918;2024-03-08T13:51:36;17.20;67.40
8114;DHT22;4099;52.684;9.918;2024-03-08T13:56:43;17.20;66.10
8114;DHT22;4099;52.684;9.918;2024-03-08T14:02:11;17.70;63.30
8114;DHT22;4099;52.684;9.918;2024-03-08T14:07:18;17.20;64.90
8114;DHT22;4099;52.684;9.918;2024-03-08T14:12:36;17.50;63.10
8114;DHT22;4099;52.684;9.918;2024-03-08T14:17:53;17.50;62.30
8114;DHT22;4099;52.684;9.918;2024-03-08T14:23:05;18.20;61.70
8114;DHT22;4099;52.684;9.918;2024-03-08T14:28:14;18.40;59.60
8114;DHT22;4099;52.684;9.918;2024-03-08T14:33:41;19.60;62.80
8114;DHT22;4099;52.684;9.918;2024-03-08T14:39:13;20.70;57.80
8114;DHT22;4099;52.684;9.918;2024-03-08T14:44:28;19.20;58.00
8114;DHT22;4099;52.684;9.918;2024-03-08T14:49:50;18.50;56.70
8114;DHT22;4099;52.684;9.918;2024-03-08T14:54:57;17.30;62.90
8114;DHT22;4099;52.684;9.918;2024-03-08T15:00:07;15.90;61.40
8114;DHT22;4099;52.684;9.918;2024-03-08T15:05:18;14.70;64.50
8114;DHT22;4099;52.684;9.918;2024-03-08T15:10:34;14.50;67.40
8114;DHT22;4099;52.684;9.918;2024-03-08T15:15:59;14.30;65.30
8114;DHT22;4099;52.684;9.918;2024-03-08T15:21:08;15.20;63.30
8114;DHT22;4099;52.684;9.918;2024-03-08T15:31:43;16.90;61.20
8114;DHT22;4099;52.684;9.918;2024-03-08T15:36:56;17.20;62.50
8114;DHT22;4099;52.684;9.918;2024-03-08T15:42:25;16.90;61.10
8114;DHT22;4099;52.684;9.918;2024-03-08T15:47:37;16.10;62.30
8114;DHT22;4099;52.684;9.918;2024-03-08T15:52:45;15.80;62.80
8114;DHT22;4099;52.684;9.918;2024-03-08T15:57:54;16.00;63.40
8114;DHT22;4099;52.684;9.918;2024-03-08T16:03:05;15.80;62.40
8114;DHT22;4099;52.684;9.918;2024-03-08T16:08:14;14.40;63.60
8114;DHT22;4099;52.684;9.918;2024-03-08T16:13:30;12.70;67.70
8114;DHT22;4099;52.684;9.918;2024-03-08T16:18:43;12.50;68.10
8114;DHT22;4099;52.684;9.918;2024-03-08T16:24:10;12.40;68.30
8114;DHT22;4099;52.684;9.918;2024-03-08T16:29:18;12.90;67.90
8114;DHT22;4099;52.684;9.918;2024-03-08T16:34:27;12.30;68.40
8114;DHT22;4099;52.684;9.918;2024-03-08T16:39:42;11.50;69.50
8114;DHT22;4099;52.684;9.918;2024-03-08T16:44:57;9.90;73.10
8114;DHT22;4099;52.684;9.918;2024-03-08T16:50:03;9.00;76.00
8114;DHT22;4099;52.684;9.918;2024-03-08T16:55:11;8.60;78.10
8114;DHT22;4099;52.684;9.918;2024-03-08T17:00:33;8.20;78.80
8114;DHT22;4099;52.684;9.918;2024-03-08T17:05:40;7.70;80.50
8114;DHT22;4099;52.684;9.918;2024-03-08T17:10:52;7.30;82.10
8114;DHT22;4099;52.684;9.918;2024-03-08T17:16:00;7.00;83.60
8114;DHT22;4099;52.684;9.918;2024-03-08T17:21:07;6.70;84.30
8114;DHT22;4099;52.684;9.918;2024-03-08T17:26:23;6.30;86.00
8114;DHT22;4099;52.684;9.918;2024-03-08T17:31:35;6.00;88.70
8114;DHT22;4099;52.684;9.918;2024-03-08T17:36:40;5.70;90.00
8114;DHT22;4099;52.684;9.918;2024-03-08T17:41:47;5.40;90.60
8114;DHT22;4099;52.684;9.918;2024-03-08T17:47:03;5.20;91.20
8114;DHT22;4099;52.684;9.918;2024-03-08T17:52:09;5.10;91.60
8114;DHT22;4099;52.684;9.918;2024-03-08T17:57:18;5.20;91.60
8114;DHT22;4099;52.684;9.918;2024-03-08T18:02:32;5.20;92.00
8114;DHT22;4099;52.684;9.918;2024-03-08T18:07:35;5.10;92.30
8114;DHT22;4099;52.684;9.918;2024-03-08T18:12:46;5.20;92.00
8114;DHT22;4099;52.684;9.918;2024-03-08T18:17:53;5.50;91.50
8114;DHT22;4099;52.684;9.918;2024-03-08T18:23:02;5.60;91.50
8114;DHT22;4099;52.684;9.918;2024-03-08T18:28:05;5.40;91.20
8114;DHT22;4099;52.684;9.918;2024-03-08T18:33:14;5.30;91.40
8114;DHT22;4099;52.684;9.918;2024-03-08T18:38:16;5.10;91.60
8114;DHT22;4099;52.684;9.918;2024-03-08T18:43:23;5.20;91.20
8114;DHT22;4099;52.684;9.918;2024-03-08T18:48:30;5.30;90.80
8114;DHT22;4099;52.684;9.918;2024-03-08T18:53:35;5.30;90.90
8114;DHT22;4099;52.684;9.918;2024-03-08T18:58:42;5.30;90.50
8114;DHT22;4099;52.684;9.918;2024-03-08T19:03:48;5.30;90.70
8114;DHT22;4099;52.684;9.918;2024-03-08T19:08:56;5.30;90.50
8114;DHT22;4099;52.684;9.918;2024-03-08T19:13:59;5.20;90.70
8114;DHT22;4099;52.684;9.918;2024-03-08T19:19:04;5.30;90.70
8114;DHT22;4099;52.684;9.918;2024-03-08T19:24:10;5.10;90.70
8114;DHT22;4099;52.684;9.918;2024-03-08T19:29:15;5.00;91.00
8114;DHT22;4099;52.684;9.918;2024-03-08T19:34:23;4.70;91.30
8114;DHT22;4099;52.684;9.918;2024-03-08T19:39:28;4.70;91.20
8114;DHT22;4099;52.684;9.918;2024-03-08T19:44:34;4.70;91.40
8114;DHT22;4099;52.684;9.918;2024-03-08T19:49:41;4.70;91.50
8114;DHT22;4099;52.684;9.918;2024-03-08T19:54:46;4.70;91.80
8114;DHT22;4099;52.684;9.918;2024-03-08T19:59:52;4.60;92.00
8114;DHT22;4099;52.684;9.918;2024-03-08T20:05:01;4.60;92.20
8114;DHT22;4099;52.684;9.918;2024-03-08T20:10:06;4.30;92.50
8114;DHT22;4099;52.684;9.918;2024-03-08T20:15:16;4.20;92.90
8114;DHT22;4099;52.684;9.918;2024-03-08T20:20:27;4.00;93.10
8114;DHT22;4099;52.684;9.918;2024-03-08T20:25:38;3.90;93.30
8114;DHT22;4099;52.684;9.918;2024-03-08T20:30:47;3.60;94.20
8114;DHT22;4099;52.684;9.918;2024-03-08T20:35:51;3.70;94.30
8114;DHT22;4099;52.684;9.918;2024-03-08T20:40:59;3.90;94.30
8114;DHT22;4099;52.684;9.918;2024-03-08T20:46:06;3.90;93.90
8114;DHT22;4099;52.684;9.918;2024-03-08T20:51:15;3.70;94.00
8114;DHT22;4099;52.684;9.918;2024-03-08T20:56:20;3.90;94.00
8114;DHT22;4099;52.684;9.918;2024-03-08T21:01:23;3.80;94.20
8114;DHT22;4099;52.684;9.918;2024-03-08T21:06:33;3.80;94.00
8114;DHT22;4099;52.684;9.918;2024-03-08T21:11:38;3.90;93.90
8114;DHT22;4099;52.684;9.918;2024-03-08T21:16:43;3.80;94.20
8114;DHT22;4099;52.684;9.918;2024-03-08T21:21:52;3.70;94.20
8114;DHT22;4099;52.684;9.918;2024-03-08T21:27:09;3.80;94.40
8114;DHT22;4099;52.684;9.918;2024-03-08T21:32:17;3.80;94.60
8114;DHT22;4099;52.684;9.918;2024-03-08T21:37:21;3.80;94.60
8114;DHT22;4099;52.684;9.918;2024-03-08T21:42:28;3.80;94.70
8114;DHT22;4099;52.684;9.918;2024-03-08T21:47:31;3.90;94.50
8114;DHT22;4099;52.684;9.918;2024-03-08T21:52:37;3.90;94.80
8114;DHT22;4099;52.684;9.918;2024-03-08T21:57:45;3.80;94.80
8114;DHT22;4099;52.684;9.918;2024-03-08T22:02:51;3.70;95.40
8114;DHT22;4099;52.684;9.918;2024-03-08T22:07:55;3.70;95.40
8114;DHT22;4099;52.684;9.918;2024-03-08T22:12:58;3.70;95.60
8114;DHT22;4099;52.684;9.918;2024-03-08T22:18:05;3.70;95.60
8114;DHT22;4099;52.684;9.918;2024-03-08T22:23:16;3.80;95.50
8114;DHT22;4099;52.684;9.918;2024-03-08T22:28:22;3.80;95.80
8114;DHT22;4099;52.684;9.918;2024-03-08T22:33:35;3.80;95.80
8114;DHT22;4099;52.684;9.918;2024-03-08T22:38:44;3.80;96.10
8114;DHT22;4099;52.684;9.918;2024-03-08T22:43:49;3.80;96.20
8114;DHT22;4099;52.684;9.918;2024-03-08T22:48:55;3.70;96.30
8114;DHT22;4099;52.684;9.918;2024-03-08T22:53:59;3.60;96.50
8114;DHT22;4099;52.684;9.918;2024-03-08T22:59:03;3.60;96.70
8114;DHT22;4099;52.684;9.918;2024-03-08T23:04:07;3.50;97.10
8114;DHT22;4099;52.684;9.918;2024-03-08T23:09:11;3.60;97.30
8114;DHT22;4099;52.684;9.918;2024-03-08T23:14:17;3.40;97.60
8114;DHT22;4099;52.684;9.918;2024-03-08T23:19:20;3.50;97.90
8114;DHT22;4099;52.684;9.918;2024-03-08T23:24:23;3.50;98.10
8114;DHT22;4099;52.684;9.918;2024-03-08T23:29:28;3.40;98.10
8114;DHT22;4099;52.684;9.918;2024-03-08T23:34:36;3.40;98.40
8114;DHT22;4099;52.684;9.918;2024-03-08T23:39:43;3.40;98.50
8114;DHT22;4099;52.684;9.918;2024-03-08T23:44:48;3.30;98.90
8114;DHT22;4099;52.684;9.918;2024-03-08T23:49:53;3.20;99.20
8114;DHT22;4099;52.684;9.918;2024-03-08T23:55:04;3.20;99.30
